Time;durP1;ratioP1;P1;durP2;ratioP2;P2;SDS_P1;SDS_P2;PMS_P1;PMS_P2;Temp;Humidity;BMP_temperature;BMP_pressure;BME280_temperature;BME280_humidity;BME280_pressure;Samples;Min_cycle;Max_cycle;Signal;HPM_P1;HPM_P2
2023/12/27 00:01:31;;;;;;;6.07;1.50;;;;;;;3.58;96.05;102196.75;7401081;19;19960;-69
2023/12/27 00:03:59;;;;;;;7.03;1.63;;;;;;;3.56;96.15;102192.50;7401873;19;20820;-69
2023/12/27 00:06:30;;;;;;;9.20;1.75;;;;;;;3.55;96.16;102190.78;7400804;19;20372;-69
2023/12/27 00:09:00;;;;;;;7.68;1.70;;;;;;;3.52;96.33;102186.50;7401912;19;19942;-69
2023/12/27 00:11:29;;;;;;;6.90;1.15;;;;;;;3.50;96.18;102182.22;7401132;19;20284;-69
2023/12/27 00:13:58;;;;;;;10.15;1.05;;;;;;;3.49;96.30;102181.38;7400823;19;19918;-69
2023/12/27 00:16:26;;;;;;;4.40;0.90;;;;;;;3.47;96.37;102188.59;7400354;19;19926;-69
2023/12/27 00:19:15;;;;;;;8.48;2.05;;;;;;;3.46;96.77;102194.03;7399354;19;19923;-69
2023/12/27 00:21:46;;;;;;;10.57;1.58;;;;;;;3.44;96.51;102203.94;7401193;19;19915;-69
2023/12/27 00:24:14;;;;;;;8.85;1.30;;;;;;;3.42;96.73;102203.16;7400998;19;20611;-69
2023/12/27 00:26:43;;;;;;;6.50;1.50;;;;;;;3.42;97.08;102200.50;7401235;19;19938;-69
2023/12/27 00:29:12;;;;;;;5.88;1.95;;;;;;;3.41;97.02;102207.63;7399913;19;19926;-69
2023/12/27 00:31:40;;;;;;;10.32;1.50;;;;;;;3.39;96.88;102214.88;7401539;19;19925;-69
2023/12/27 00:34:09;;;;;;;3.92;1.10;;;;;;;3.39;96.73;102217.56;7400505;19;19917;-69
2023/12/27 00:36:38;;;;;;;3.67;1.02;;;;;;;3.39;96.94;102222.88;7400492;19;20272;-69
2023/12/27 00:39:11;;;;;;;6.03;1.45;;;;;;;3.41;96.87;102220.13;7400724;19;19914;-69
2023/12/27 00:41:39;;;;;;;5.60;1.52;;;;;;;3.38;96.79;102215.84;7400408;19;20351;-69
2023/12/27 00:44:08;;;;;;;4.95;1.48;;;;;;;3.38;97.18;102210.50;7400622;19;19942;-69
2023/12/27 00:46:37;;;;;;;5.47;1.60;;;;;;;3.37;96.73;102213.25;7399927;19;19922;-69
2023/12/27 00:49:06;;;;;;;11.13;2.03;;;;;;;3.35;97.10;102216.03;7400852;19;20347;-69
2023/12/27 00:51:34;;;;;;;7.28;1.77;;;;;;;3.34;97.10;102211.66;7399872;19;19921;-69
2023/12/27 00:54:03;;;;;;;3.60;1.30;;;;;;;3.33;97.27;102223.25;7400536;19;19918;-69
2023/12/27 00:56:34;;;;;;;6.63;1.50;;;;;;;3.32;97.47;102221.56;7399788;19;19922;-68
2023/12/27 00:59:02;;;;;;;6.80;1.38;;;;;;;3.32;97.22;102213.59;7400612;19;19925;-69
2023/12/27 01:01:31;;;;;;;8.43;1.35;;;;;;;3.32;97.54;102213.59;7399903;19;19970;-69
2023/12/27 01:04:00;;;;;;;3.58;1.33;;;;;;;3.29;97.42;102213.75;7401068;19;19918;-68
2023/12/27 01:06:29;;;;;;;8.18;1.85;;;;;;;3.27;97.39;102214.81;7399575;19;20340;-69
2023/12/27 01:08:57;;;;;;;8.45;1.60;;;;;;;3.26;97.83;102215.75;7403062;19;19929;-69
2023/12/27 01:11:27;;;;;;;5.40;1.23;;;;;;;3.25;97.65;102222.91;7404417;19;19942;-69
2023/12/27 01:13:58;;;;;;;9.20;2.45;;;;;;;3.25;98.08;102225.56;7405344;19;20363;-69
2023/12/27 01:16:27;;;;;;;10.10;1.67;;;;;;;3.24;97.96;102229.16;7404455;19;19922;-69
2023/12/27 01:18:55;;;;;;;10.27;1.95;;;;;;;3.24;98.08;102233.66;7404704;19;19918;-69
2023/12/27 01:21:24;;;;;;;7.95;1.33;;;;;;;3.24;98.15;102239.00;7405251;19;19942;-69
2023/12/27 01:23:54;;;;;;;6.47;1.60;;;;;;;3.22;98.10;102227.56;7404582;19;19922;-69
2023/12/27 01:26:22;;;;;;;6.82;2.55;;;;;;;3.19;98.31;102229.44;7405107;19;19922;-69
2023/12/27 01:29:13;;;;;;;11.30;3.45;;;;;;;3.17;98.24;102239.34;7403427;19;20360;-69
2023/12/27 01:31:42;;;;;;;7.82;3.13;;;;;;;3.14;98.41;102234.22;7404833;19;19918;-68
2023/12/27 01:34:11;;;;;;;11.52;2.90;;;;;;;3.16;98.83;102242.09;7405144;19;19914;-69
2023/12/27 01:36:40;;;;;;;9.30;2.25;;;;;;;3.15;98.93;102243.06;7405253;19;19930;-69
2023/12/27 01:39:29;;;;;;;5.60;1.92;;;;;;;3.15;99.07;102235.91;7403727;19;20010;-70
2023/12/27 01:41:57;;;;;;;8.98;1.95;;;;;;;3.15;98.71;102230.59;7404217;19;19914;-69
2023/12/27 01:44:28;;;;;;;5.65;1.80;;;;;;;3.15;98.88;102230.59;7404785;19;20854;-69
2023/12/27 01:46:57;;;;;;;3.85;1.08;;;;;;;3.14;98.97;102238.69;7404501;19;19919;-70
2023/12/27 01:49:26;;;;;;;7.97;2.08;;;;;;;3.12;98.97;102244.09;7404968;19;19942;-70
2023/12/27 01:51:54;;;;;;;9.02;2.25;;;;;;;3.09;98.94;102240.78;7403935;19;19926;-70
2023/12/27 01:54:23;;;;;;;5.88;1.90;;;;;;;3.08;99.12;102234.59;7401057;19;19967;-69
2023/12/27 01:56:50;;;;;;;9.30;2.05;;;;;;;3.08;99.11;102239.94;7403919;19;20237;-69
2023/12/27 01:59:19;;;;;;;10.52;1.80;;;;;;;3.05;99.29;102233.94;7404627;19;20268;-70
2023/12/27 02:02:10;;;;;;;4.70;1.48;;;;;;;3.04;99.10;102240.22;7402865;19;19921;-69
2023/12/27 02:04:39;;;;;;;8.40;1.92;;;;;;;3.03;99.34;102249.16;7403775;19;19915;-70
2023/12/27 02:07:08;;;;;;;11.13;2.65;;;;;;;3.02;99.53;102247.47;7404678;19;19915;-69
2023/12/27 02:09:37;;;;;;;5.38;1.30;;;;;;;3.00;99.59;102236.03;7402680;19;20305;-69
2023/12/27 02:12:06;;;;;;;7.60;1.90;;;;;;;3.00;99.54;102247.53;7404526;19;19926;-69
2023/12/27 02:14:35;;;;;;;6.07;1.55;;;;;;;3.00;99.39;102236.03;7404026;19;19941;-69
2023/12/27 02:17:04;;;;;;;6.90;1.50;;;;;;;2.97;99.50;102241.56;7404035;19;20343;-69
2023/12/27 02:19:35;;;;;;;5.78;1.60;;;;;;;2.98;99.58;102237.91;7402161;19;19919;-69
2023/12/27 02:22:05;;;;;;;;;;;;;;;2.91;100.00;102244.56;7405861;19;20298;-70
2023/12/27 02:24:39;;;;;;;5.85;1.60;;;;;;;2.92;99.92;102233.84;7402965;19;19923;-69
2023/12/27 02:27:08;;;;;;;9.77;2.10;;;;;;;2.91;100.00;102237.47;7403128;19;19919;-69
2023/12/27 02:29:37;;;;;;;6.97;1.48;;;;;;;2.91;100.00;102233.94;7403104;19;20344;-69
2023/12/27 02:32:08;;;;;;;5.30;1.58;;;;;;;2.90;100.00;102227.75;7403526;19;19922;-69
2023/12/27 02:34:37;;;;;;;8.18;1.17;;;;;;;2.89;100.00;102233.19;7403341;19;19922;-69
2023/12/27 02:37:06;;;;;;;10.95;1.73;;;;;;;2.86;100.00;102228.03;7403559;19;19922;-69
2023/12/27 02:39:59;;;;;;;5.97;1.38;;;;;;;2.84;100.00;102232.63;7400873;19;19919;-69
2023/12/27 02:42:27;;;;;;;8.02;1.40;;;;;;;2.82;100.00;102230.03;7402960;19;19918;-69
2023/12/27 02:44:56;;;;;;;5.43;1.23;;;;;;;2.82;100.00;102221.19;7402784;19;19971;-69
2023/12/27 02:47:24;;;;;;;5.45;1.30;;;;;;;2.79;100.00;102227.56;7403548;19;19914;-69
2023/12/27 02:49:53;;;;;;;5.85;1.70;;;;;;;2.77;100.00;102226.78;7403218;19;19949;-69
2023/12/27 02:52:22;;;;;;;7.43;1.15;;;;;;;2.73;100.00;102223.47;7402430;19;19915;-69
2023/12/27 02:54:50;;;;;;;5.65;1.23;;;;;;;2.70;100.00;102218.34;7403610;19;20404;-69
2023/12/27 02:57:22;;;;;;;5.93;1.10;;;;;;;2.68;100.00;102214.91;7402311;19;19957;-69
2023/12/27 03:00:11;;;;;;;6.22;1.30;;;;;;;2.64;100.00;102220.50;7401716;19;19929;-69
2023/12/27 03:02:40;;;;;;;5.57;0.98;;;;;;;2.61;100.00;102208.25;7401467;19;19945;-70
2023/12/27 03:05:09;;;;;;;7.07;0.88;;;;;;;2.59;100.00;102209.31;7403505;19;19930;-69
2023/12/27 03:07:38;;;;;;;7.07;1.10;;;;;;;2.56;100.00;102204.16;7402213;19;19925;-69
2023/12/27 03:10:08;;;;;;;4.35;1.00;;;;;;;2.55;100.00;102213.06;7403152;19;19910;-69
2023/12/27 03:12:39;;;;;;;4.15;1.10;;;;;;;2.52;100.00;102205.28;7402598;19;19919;-69
2023/12/27 03:15:09;;;;;;;6.15;1.55;;;;;;;2.46;100.00;102195.88;7402590;19;19919;-69
2023/12/27 03:17:37;;;;;;;9.15;1.25;;;;;;;2.43;100.00;102185.44;7402839;19;19974;-69
2023/12/27 03:20:07;;;;;;;7.20;0.95;;;;;;;2.40;100.00;102179.44;7401681;19;19946;-69
2023/12/27 03:22:35;;;;;;;5.10;1.17;;;;;;;2.38;100.00;102181.31;7402436;19;19919;-69
2023/12/27 03:25:04;;;;;;;4.88;0.77;;;;;;;2.34;100.00;102178.00;7402141;19;19993;-69
2023/12/27 03:27:33;;;;;;;4.95;0.85;;;;;;;2.34;100.00;102174.47;7402556;19;19922;-69
2023/12/27 03:30:04;;;;;;;4.20;1.05;;;;;;;2.32;100.00;102177.25;7401595;19;19914;-69
2023/12/27 03:32:33;;;;;;;3.75;0.93;;;;;;;2.32;100.00;102174.59;7401796;19;19915;-69
2023/12/27 03:35:02;;;;;;;8.23;1.10;;;;;;;2.30;100.00;102171.16;7401699;19;19932;-69
2023/12/27 03:37:31;;;;;;;6.18;1.10;;;;;;;2.27;100.00;102152.75;7401575;19;19923;-69
2023/12/27 03:40:00;;;;;;;3.22;1.00;;;;;;;2.25;100.00;102162.59;7401213;19;20246;-70
2023/12/27 03:42:29;;;;;;;4.88;0.82;;;;;;;2.28;100.00;102157.13;7402390;19;19922;-69
2023/12/27 03:45:20;;;;;;;3.15;0.98;;;;;;;2.28;100.00;102167.75;7400679;19;19915;-69
2023/12/27 03:47:49;;;;;;;4.78;0.90;;;;;;;2.26;100.00;102166.97;7401975;19;19948;-69
2023/12/27 03:50:17;;;;;;;8.02;1.38;;;;;;;2.26;100.00;102170.50;7402471;19;19922;-69
2023/12/27 03:52:46;;;;;;;4.03;0.90;;;;;;;2.28;100.00;102173.06;7401074;19;20252;-69
2023/12/27 03:55:15;;;;;;;3.72;1.00;;;;;;;2.27;100.00;102180.19;7401967;19;20089;-69
2023/12/27 03:57:43;;;;;;;6.57;1.60;;;;;;;2.27;100.00;102184.66;7401006;19;19989;-70
2023/12/27 04:00:13;;;;;;;5.68;0.90;;;;;;;2.29;100.00;102190.72;7402436;19;20344;-69
2023/12/27 04:02:45;;;;;;;9.25;1.15;;;;;;;2.28;100.00;102186.38;7400597;19;19931;-69
2023/12/27 04:05:13;;;;;;;5.22;1.00;;;;;;;2.27;100.00;102174.00;7401640;19;20010;-69
2023/12/27 04:08:02;;;;;;;5.57;0.80;;;;;;;2.25;100.00;102179.41;7400023;19;19919;-70
2023/12/27 04:10:31;;;;;;;7.53;1.48;;;;;;;2.25;100.00;102182.06;7401171;19;19918;-69
2023/12/27 04:13:00;;;;;;;5.03;1.65;;;;;;;2.24;100.00;102184.84;7401459;19;19922;-69
2023/12/27 04:15:30;;;;;;;7.63;1.30;;;;;;;2.23;100.00;102175.16;7400707;19;20289;-69
2023/12/27 04:18:01;;;;;;;2.17;1.25;;;;;;;2.23;100.00;102181.31;7401431;19;20300;-69
2023/12/27 04:20:30;;;;;;;4.63;0.90;;;;;;;2.20;100.00;102173.50;7401161;19;19922;-69
2023/12/27 04:22:58;;;;;;;5.28;1.35;;;;;;;2.19;100.00;102179.78;7402277;19;19921;-69
2023/12/27 04:25:27;;;;;;;6.60;1.00;;;;;;;2.17;100.00;102172.84;7400534;19;19982;-69
2023/12/27 04:27:56;;;;;;;3.83;0.90;;;;;;;2.16;100.00;102173.78;7401527;19;19988;-69
2023/12/27 04:30:24;;;;;;;5.78;1.27;;;;;;;2.14;100.00;102170.38;7401328;19;19918;-70
2023/12/27 04:32:53;;;;;;;6.70;1.15;;;;;;;2.13;100.00;102171.31;7401357;19;20374;-70
2023/12/27 04:35:24;;;;;;;5.22;0.90;;;;;;;2.11;100.00;102162.59;7401094;19;20265;-69
2023/12/27 04:37:54;;;;;;;;;;;;;;;2.05;100.00;102165.59;7403625;19;19948;-70
2023/12/27 04:40:23;;;;;;;3.95;0.80;;;;;;;2.08;100.00;102157.44;7400668;19;19934;-70
2023/12/27 04:42:51;;;;;;;2.50;0.88;;;;;;;2.07;100.00;102163.72;7397895;19;19922;-70
2023/12/27 04:45:20;;;;;;;7.97;1.50;;;;;;;2.07;100.00;102175.19;7401031;19;19915;-70
2023/12/27 04:47:49;;;;;;;7.53;1.35;;;;;;;2.06;100.00;102167.31;7398807;19;19938;-70
2023/12/27 04:50:18;;;;;;;6.63;1.25;;;;;;;2.06;100.00;102167.31;7400315;19;20376;-70
2023/12/27 04:52:49;;;;;;;6.32;1.73;;;;;;;2.05;100.00;102160.28;7399609;19;19919;-69
2023/12/27 04:55:15;;;;;;;4.68;1.13;;;;;;;2.04;100.00;102158.56;7400310;19;19922;-69
2023/12/27 04:57:43;;;;;;;4.32;1.55;;;;;;;2.02;100.00;102156.00;7399523;19;20387;-69
2023/12/27 05:00:12;;;;;;;4.40;1.35;;;;;;;2.02;100.00;102158.66;7399520;19;19922;-69
2023/12/27 05:02:41;;;;;;;6.22;1.20;;;;;;;2.01;100.00;102156.09;7399613;19;19934;-69
2023/12/27 05:05:10;;;;;;;4.75;1.38;;;;;;;2.00;100.00;102151.72;7399772;19;19911;-70
2023/12/27 05:07:38;;;;;;;7.53;1.35;;;;;;;1.98;100.00;102157.16;7400020;19;19914;-70
2023/12/27 05:10:11;;;;;;;8.68;1.55;;;;;;;1.97;100.00;102154.56;7400095;19;19923;-70
2023/12/27 05:12:39;;;;;;;5.18;1.30;;;;;;;1.97;100.00;102147.44;7399881;19;20329;-70
2023/12/27 05:15:09;;;;;;;4.28;1.15;;;;;;;1.96;100.00;102144.88;7399459;19;19950;-69
2023/12/27 05:17:37;;;;;;;7.20;2.05;;;;;;;1.96;100.00;102150.19;7399900;19;19915;-70
2023/12/27 05:20:07;;;;;;;6.72;1.48;;;;;;;1.95;100.00;102149.34;7399002;19;19927;-70
2023/12/27 05:22:39;;;;;;;5.55;1.42;;;;;;;1.92;100.00;102144.22;7399737;19;19923;-70
2023/12/27 05:25:11;;;;;;;6.38;1.85;;;;;;;1.95;100.00;102143.16;7399486;19;20301;-70
2023/12/27 05:27:40;;;;;;;8.27;1.88;;;;;;;1.95;100.00;102145.81;7399111;19;19919;-70
2023/12/27 05:30:28;;;;;;;12.27;2.42;;;;;;;1.94;100.00;102147.66;7397895;19;19919;-69
2023/12/27 05:32:57;;;;;;;10.00;1.98;;;;;;;1.95;100.00;102136.03;7398310;19;19915;-70
2023/12/27 05:35:25;;;;;;;6.90;2.03;;;;;;;1.95;100.00;102128.06;7398745;19;19966;-69
2023/12/27 05:37:55;;;;;;;6.78;2.38;;;;;;;1.97;100.00;102138.63;7398847;19;19923;-69
2023/12/27 05:40:41;;;;;;;6.88;2.20;;;;;;;1.98;100.00;102143.84;7398548;19;19922;-69
2023/12/27 05:43:12;;;;;;;7.90;2.03;;;;;;;2.00;100.00;102146.41;7398267;19;20344;-70
2023/12/27 05:45:43;;;;;;;7.63;2.63;;;;;;;2.03;100.00;102140.94;7398773;19;19954;-70
2023/12/27 05:48:12;;;;;;;10.45;2.00;;;;;;;2.02;100.00;102145.38;7398817;19;19942;-70
2023/12/27 05:50:44;;;;;;;8.85;2.22;;;;;;;2.04;100.00;102139.97;7398036;19;20253;-70
2023/12/27 05:53:29;;;;;;;5.78;1.92;;;;;;;2.04;100.00;102142.63;7398534;19;19919;-70
2023/12/27 05:56:00;;;;;;;7.75;2.28;;;;;;;2.06;100.00;102135.41;7403282;19;19934;-70
2023/12/27 05:58:32;;;;;;;13.27;2.15;;;;;;;2.06;100.00;102135.41;7404267;19;19926;-70
2023/12/27 06:01:04;;;;;;;6.55;2.03;;;;;;;2.05;100.00;102134.56;7404033;19;19926;-70
2023/12/27 06:03:47;;;;;;;16.05;2.05;;;;;;;2.05;100.00;102134.56;7405142;19;20452;-70
2023/12/27 06:06:18;;;;;;;4.65;1.75;;;;;;;2.07;100.00;102137.13;7405421;19;20015;-70
2023/12/27 06:08:53;;;;;;;7.40;2.17;;;;;;;2.07;100.00;102131.81;7403285;19;19918;-70
2023/12/27 06:11:29;;;;;;;6.22;1.95;;;;;;;2.07;100.00;102131.81;7404343;19;19930;-70
2023/12/27 06:14:03;;;;;;;4.38;2.20;;;;;;;2.09;100.00;102119.28;7404204;19;20011;-70
2023/12/27 06:16:32;;;;;;;4.18;2.47;;;;;;;2.13;100.00;102116.34;7404007;19;19919;-70
2023/12/27 06:19:08;;;;;;;4.47;2.00;;;;;;;2.16;100.00;102107.31;7403991;19;19919;-70
2023/12/27 06:21:40;;;;;;;6.90;1.98;;;;;;;2.18;100.00;102106.31;7404773;19;19946;-70
2023/12/27 06:24:19;;;;;;;10.93;2.20;;;;;;;2.19;100.00;102100.03;7404468;19;19911;-70
2023/12/27 06:26:54;;;;;;;7.28;2.33;;;;;;;2.19;100.00;102112.47;7403927;19;19938;-70
2023/12/27 06:29:32;;;;;;;7.47;2.92;;;;;;;2.17;100.00;102106.38;7404413;19;20024;-70
2023/12/27 06:32:04;;;;;;;4.30;1.77;;;;;;;2.17;100.00;102114.34;7404085;19;19974;-70
2023/12/27 06:34:46;;;;;;;3.67;1.95;;;;;;;2.17;100.00;102096.59;7403705;19;19936;-70
2023/12/27 06:37:21;;;;;;;3.55;1.83;;;;;;;2.19;100.00;102105.34;7402852;19;22161;-70
2023/12/27 06:39:56;;;;;;;6.38;2.95;;;;;;;2.20;100.00;102109.69;7403070;19;19949;-70
2023/12/27 06:42:31;;;;;;;3.90;2.00;;;;;;;2.20;100.00;102103.56;7404317;19;19922;-70
2023/12/27 06:45:01;;;;;;;8.68;2.58;;;;;;;2.22;100.00;102101.66;7403891;19;19946;-70
2023/12/27 06:47:35;;;;;;;7.22;2.45;;;;;;;2.25;100.00;102099.66;7403333;19;19929;-70
2023/12/27 06:50:08;;;;;;;8.90;2.45;;;;;;;2.27;100.00;102096.91;7403987;19;19915;-70
2023/12/27 06:52:38;;;;;;;7.55;2.35;;;;;;;2.27;100.00;102096.91;7402771;19;19921;-70
2023/12/27 06:55:37;;;;;;;8.88;2.30;;;;;;;2.28;100.00;102096.81;7404139;19;19911;-70
2023/12/27 06:58:13;;;;;;;11.38;2.50;;;;;;;2.30;100.00;102096.72;7402365;19;19957;-70
2023/12/27 07:00:44;;;;;;;5.68;2.25;;;;;;;2.33;100.00;102096.50;7401822;19;19934;-70
2023/12/27 07:03:17;;;;;;;5.68;2.15;;;;;;;2.34;100.00;102098.22;7403685;19;19938;-70
2023/12/27 07:05:49;;;;;;;7.93;2.10;;;;;;;2.35;100.00;102099.09;7401679;19;19914;-70
2023/12/27 07:08:27;;;;;;;4.72;1.98;;;;;;;2.33;100.00;102085.88;7403498;19;19922;-69
2023/12/27 07:11:10;;;;;;;6.28;2.22;;;;;;;2.35;100.00;102081.34;7403436;19;19937;-69
2023/12/27 07:13:42;;;;;;;5.95;2.17;;;;;;;2.35;100.00;102088.44;7402351;19;19950;-69
2023/12/27 07:16:25;;;;;;;;;;;;;;;2.32;100.00;102093.97;7405616;19;19941;-70
2023/12/27 07:19:09;;;;;;;4.72;2.20;;;;;;;2.35;100.00;102088.44;7397979;19;20006;-69
2023/12/27 07:21:43;;;;;;;3.40;1.85;;;;;;;2.37;100.00;102082.09;7401763;19;19923;-69
2023/12/27 07:24:24;;;;;;;9.95;2.22;;;;;;;2.36;100.00;102075.06;7403051;19;19935;-69
2023/12/27 07:27:07;;;;;;;5.53;2.13;;;;;;;2.39;100.00;102080.19;7402956;19;20554;-70
2023/12/27 07:29:41;;;;;;;6.03;2.13;;;;;;;2.41;100.00;102077.44;7402127;19;19919;-70
2023/12/27 07:32:11;;;;;;;7.30;2.00;;;;;;;2.41;100.00;102080.09;7403205;19;19914;-69
2023/12/27 07:34:46;;;;;;;4.35;1.90;;;;;;;2.41;100.00;102085.44;7402390;19;19922;-70
2023/12/27 07:37:16;;;;;;;4.55;2.03;;;;;;;2.43;100.00;102080.84;7402759;19;19914;-70
2023/12/27 07:39:54;;;;;;;7.50;1.85;;;;;;;2.46;100.00;102081.50;7401132;19;19922;-70
2023/12/27 07:42:31;;;;;;;2.97;1.70;;;;;;;2.50;100.00;102083.03;7402717;19;19926;-70
2023/12/27 07:45:06;;;;;;;4.15;1.85;;;;;;;2.55;100.00;102075.63;7402552;19;19926;-70
2023/12/27 07:47:46;;;;;;;4.20;2.10;;;;;;;2.56;100.00;102077.34;7402017;19;19942;-70
2023/12/27 07:50:39;;;;;;;8.63;2.17;;;;;;;2.58;100.00;102071.94;7402256;19;19935;-70
2023/12/27 07:53:20;;;;;;;4.63;1.73;;;;;;;2.59;100.00;102061.19;7401838;19;19918;-70
2023/12/27 07:55:49;;;;;;;10.55;2.00;;;;;;;2.61;100.00;102053.97;7401725;19;19919;-70
2023/12/27 07:58:45;;;;;;;4.38;1.80;;;;;;;2.62;100.00;102049.50;7402231;19;19926;-70
2023/12/27 08:01:30;;;;;;;5.90;1.50;;;;;;;2.64;100.00;102052.91;7402075;19;20284;-70
2023/12/27 08:04:10;;;;;;;4.03;1.40;;;;;;;2.66;100.00;102043.03;7401355;19;19922;-70
2023/12/27 08:06:52;;;;;;;5.35;2.15;;;;;;;2.66;100.00;102038.56;7401293;19;19919;-70
2023/12/27 08:09:29;;;;;;;3.33;1.88;;;;;;;2.68;100.00;102030.47;7401867;19;19925;-70
2023/12/27 08:11:58;;;;;;;4.40;1.65;;;;;;;2.70;100.00;102029.44;7401205;19;19969;-70
2023/12/27 08:14:43;;;;;;;9.18;2.75;;;;;;;2.72;100.00;102032.84;7401869;19;19982;-70
2023/12/27 08:17:22;;;;;;;4.85;1.60;;;;;;;2.73;100.00;102020.41;7400473;19;20260;-70
2023/12/27 08:19:58;;;;;;;5.43;2.55;;;;;;;2.77;100.00;102019.25;7400466;19;20280;-70
2023/12/27 08:22:36;;;;;;;4.63;1.65;;;;;;;2.81;100.00;102018.09;7400645;19;19911;-70
2023/12/27 08:25:29;;;;;;;4.97;1.20;;;;;;;2.82;100.00;102024.28;7399915;19;19921;-70
2023/12/27 08:28:23;;;;;;;4.05;1.33;;;;;;;2.87;100.00;102024.84;7401547;19;19962;-70
2023/12/27 08:30:56;;;;;;;5.88;1.38;;;;;;;2.90;100.00;102025.47;7397370;19;19925;-69
2023/12/27 08:33:35;;;;;;;5.07;1.50;;;;;;;2.93;100.00;102024.44;7400158;19;19932;-70
2023/12/27 08:36:10;;;;;;;4.18;1.70;;;;;;;2.96;100.00;102019.78;7401361;19;19925;-70
2023/12/27 08:38:38;;;;;;;4.72;1.50;;;;;;;3.00;100.00;102005.31;7401077;19;19937;-70
2023/12/27 08:41:07;;;;;;;5.75;1.50;;;;;;;3.04;100.00;102005.97;7400108;19;19938;-70
2023/12/27 08:43:37;;;;;;;8.27;1.65;;;;;;;3.08;100.00;102008.31;7401940;19;19926;-70
2023/12/27 08:46:09;;;;;;;9.63;2.10;;;;;;;3.13;100.00;101997.38;7400860;19;19914;-70
2023/12/27 08:48:40;;;;;;;6.70;1.73;;;;;;;3.16;100.00;102005.13;7401315;19;19951;-70
2023/12/27 08:51:09;;;;;;;8.90;1.50;;;;;;;3.21;100.00;102000.38;7400968;19;19922;-70
2023/12/27 08:53:37;;;;;;;8.00;1.80;;;;;;;3.24;100.00;102004.66;7401418;19;19942;-70
2023/12/27 08:56:07;;;;;;;7.43;1.98;;;;;;;3.26;100.00;101995.59;7399492;19;19985;-70
2023/12/27 08:58:36;;;;;;;1.95;1.40;;;;;;;3.29;100.00;101998.03;7400583;19;20368;-70
2023/12/27 09:01:24;;;;;;;3.72;1.30;;;;;;;3.31;100.00;101995.28;7399386;19;19951;-70
2023/12/27 09:03:56;;;;;;;4.82;1.60;;;;;;;3.34;100.00;101998.59;7399937;19;20270;-70
2023/12/27 09:06:25;;;;;;;4.03;1.83;;;;;;;3.36;100.00;101995.84;7400700;19;19923;-70
2023/12/27 09:08:54;;;;;;;7.22;2.00;;;;;;;3.38;100.00;101991.25;7399784;19;19938;-70
2023/12/27 09:11:22;;;;;;;4.68;1.80;;;;;;;3.40;100.00;101992.00;7400366;19;19933;-70
2023/12/27 09:13:51;;;;;;;7.03;2.00;;;;;;;3.41;100.00;101997.22;7399930;19;19948;-70
2023/12/27 09:16:19;;;;;;;10.38;2.35;;;;;;;3.43;100.00;101999.78;7399523;19;19922;-70
2023/12/27 09:18:48;;;;;;;6.63;1.55;;;;;;;3.45;100.00;102006.69;7399223;19;19941;-70
2023/12/27 09:21:19;;;;;;;7.25;1.42;;;;;;;3.48;100.00;102009.19;7400088;19;19914;-70
2023/12/27 09:23:48;;;;;;;7.97;2.33;;;;;;;3.48;100.00;102003.84;7399155;19;19927;-70
2023/12/27 09:26:17;;;;;;;9.65;1.40;;;;;;;3.52;100.00;101991.19;7399408;19;19922;-69
2023/12/27 09:28:46;;;;;;;5.82;1.40;;;;;;;3.53;100.00;101985.75;7399292;19;20471;-70
2023/12/27 09:31:14;;;;;;;7.65;1.88;;;;;;;3.54;100.00;101982.09;7404932;19;19914;-70
2023/12/27 09:33:45;;;;;;;6.07;1.35;;;;;;;3.56;100.00;101985.53;7404754;19;19993;-70
2023/12/27 09:36:14;;;;;;;5.68;2.00;;;;;;;3.57;100.00;101983.72;7403539;19;19945;-70
2023/12/27 09:38:45;;;;;;;9.57;1.77;;;;;;;3.60;100.00;101992.34;7404291;19;19918;-70
2023/12/27 09:41:13;;;;;;;6.07;1.40;;;;;;;3.62;100.00;101986.94;7403890;19;19946;-70
2023/12/27 09:43:45;;;;;;;7.30;1.42;;;;;;;3.64;100.00;101977.88;7404370;19;20344;-70
2023/12/27 09:46:16;;;;;;;6.65;1.63;;;;;;;3.67;100.00;101974.13;7403839;19;19935;-70
2023/12/27 09:48:45;;;;;;;3.28;1.45;;;;;;;3.69;100.00;101969.56;7404584;19;20363;-70
2023/12/27 09:51:14;;;;;;;6.50;1.40;;;;;;;3.71;100.00;101967.63;7403993;19;20003;-70
2023/12/27 09:53:45;;;;;;;2.92;1.00;;;;;;;3.75;100.00;101957.63;7403917;19;19918;-70
2023/12/27 09:56:15;;;;;;;5.82;1.73;;;;;;;3.77;100.00;101945.88;7403417;19;19922;-70
2023/12/27 09:58:45;;;;;;;3.88;1.15;;;;;;;3.80;100.00;101934.16;7403902;19;20356;-70
2023/12/27 10:01:15;;;;;;;2.88;1.20;;;;;;;3.80;100.00;101940.34;7404094;19;20562;-70
2023/12/27 10:04:12;;;;;;;3.83;1.15;;;;;;;3.82;100.00;101926.91;7402213;19;19917;-69
2023/12/27 10:06:46;;;;;;;8.02;1.25;;;;;;;3.85;100.00;101916.03;7403552;19;19927;-70
2023/12/27 10:09:17;;;;;;;9.85;2.47;;;;;;;3.88;100.00;101913.16;7403513;19;19923;-69
2023/12/27 10:11:46;;;;;;;7.72;1.45;;;;;;;3.91;100.00;101899.63;7404055;19;19922;-70
2023/12/27 10:14:16;;;;;;;4.43;1.50;;;;;;;3.93;100.00;101895.88;7403358;19;20352;-69
2023/12/27 10:16:44;;;;;;;5.30;1.42;;;;;;;3.97;100.00;101893.84;7403359;19;19915;-69
2023/12/27 10:19:41;;;;;;;5.28;0.98;;;;;;;4.00;100.00;101888.28;7403659;19;20280;-69
2023/12/27 10:22:29;;;;;;;6.40;1.52;;;;;;;4.03;100.00;101877.41;7401875;19;19914;-69
2023/12/27 10:25:03;;;;;;;6.45;1.80;;;;;;;4.08;100.00;101869.94;7403958;19;20324;-69
2023/12/27 10:27:32;;;;;;;3.88;1.13;;;;;;;4.10;100.00;101860.00;7403225;19;19926;-69
2023/12/27 10:30:04;;;;;;;6.38;1.52;;;;;;;4.15;100.00;101846.31;7403196;19;19923;-69
2023/12/27 10:32:33;;;;;;;6.10;1.50;;;;;;;4.20;100.00;101846.84;7403559;19;19919;-69
2023/12/27 10:35:02;;;;;;;10.90;1.98;;;;;;;4.23;100.00;101835.97;7402364;19;19958;-69
2023/12/27 10:37:31;;;;;;;6.65;2.33;;;;;;;4.27;100.00;101826.78;7402806;19;19954;-69
2023/12/27 10:40:05;;;;;;;8.45;1.85;;;;;;;4.31;100.00;101826.44;7402573;19;19983;-69
2023/12/27 10:42:34;;;;;;;4.00;1.67;;;;;;;4.33;100.00;101805.81;7400850;19;19914;-69
2023/12/27 10:45:03;;;;;;;6.32;2.13;;;;;;;4.36;100.00;101810.06;7403390;19;19926;-69
2023/12/27 10:47:33;;;;;;;5.07;1.80;;;;;;;4.38;100.00;101803.66;7403062;19;20280;-69
2023/12/27 10:50:12;;;;;;;5.80;1.80;;;;;;;4.43;100.00;101792.66;7403520;19;19914;-69
2023/12/27 10:53:06;;;;;;;7.22;1.80;;;;;;;4.44;100.00;101779.19;7401418;19;19919;-69
2023/12/27 10:55:38;;;;;;;9.10;2.92;;;;;;;4.48;100.00;101775.34;7402843;19;19929;-69
2023/12/27 10:58:18;;;;;;;8.93;1.90;;;;;;;4.50;100.00;101770.72;7403090;19;20287;-69
2023/12/27 11:00:48;;;;;;;7.20;2.15;;;;;;;4.53;100.00;101759.00;7402248;19;19926;-69
2023/12/27 11:03:18;;;;;;;7.50;1.90;;;;;;;4.57;100.00;101747.13;7402735;19;19915;-69
2023/12/27 11:05:48;;;;;;;5.22;1.88;;;;;;;4.60;100.00;101743.34;7402082;19;20549;-70
2023/12/27 11:08:20;;;;;;;6.47;2.45;;;;;;;4.62;100.00;101723.56;7403152;19;20296;-69
2023/12/27 11:10:53;;;;;;;8.98;2.30;;;;;;;4.64;100.00;101715.47;7401862;19;19928;-69
2023/12/27 11:13:27;;;;;;;5.80;2.13;;;;;;;4.64;100.00;101720.81;7402315;19;19914;-69
2023/12/27 11:15:58;;;;;;;7.05;2.70;;;;;;;4.64;100.00;101712.78;7402302;19;20366;-69
2023/12/27 11:18:48;;;;;;;9.73;2.60;;;;;;;4.67;100.00;101700.06;7400095;19;19920;-69
2023/12/27 11:21:17;;;;;;;6.05;2.20;;;;;;;4.70;100.00;101701.66;7402552;19;19911;-70
2023/12/27 11:23:46;;;;;;;5.47;3.20;;;;;;;4.72;100.00;101694.38;7401891;19;19994;-70
2023/12/27 11:26:18;;;;;;;8.68;2.10;;;;;;;4.75;100.00;101688.78;7401937;19;20333;-69
2023/12/27 11:28:47;;;;;;;7.55;2.67;;;;;;;4.78;100.00;101677.88;7402089;19;19918;-69
2023/12/27 11:31:16;;;;;;;5.30;2.25;;;;;;;4.81;100.00;101670.47;7402287;19;19941;-69
2023/12/27 11:33:46;;;;;;;13.45;3.22;;;;;;;4.85;100.00;101666.59;7402059;19;19936;-69
2023/12/27 11:36:16;;;;;;;7.32;2.58;;;;;;;4.86;100.00;101659.44;7401479;19;19978;-69
2023/12/27 11:38:46;;;;;;;5.95;2.45;;;;;;;4.88;100.00;101650.31;7402702;19;19950;-68
2023/12/27 11:41:17;;;;;;;10.27;3.15;;;;;;;4.92;100.00;101640.25;7401469;19;20285;-69
2023/12/27 11:43:57;;;;;;;7.35;3.20;;;;;;;4.94;100.00;101641.00;7402599;19;19918;-69
2023/12/27 11:46:28;;;;;;;13.70;3.25;;;;;;;4.97;100.00;101646.06;7401187;19;19987;-69
2023/12/27 11:48:58;;;;;;;12.07;3.47;;;;;;;4.97;100.00;101638.06;7401786;19;20523;-69
2023/12/27 11:51:29;;;;;;;8.93;3.17;;;;;;;4.97;100.00;101640.75;7402000;19;19922;-69